Suma — JM6252 — position and weather

sailwx.info

Track history (hours):
 
Tides and Currents Weather Stations Pressure Air Temp Water Temp Dewpoint Dewpoint Depression Visibility Wind Speed Wind Dir Waves Ship Positions

Suma

Last reported at 2017-Nov-20 00:30 UTC. Time now 2017-Nov-22 12:47 UTC.
Position N 34°41' E 135°17'.

Length 80 m; draft 4.5 m.

Type: Cargo ship. MMSI: 431600127.

Date/timePositionNaut miles runAvg speedWind from/ knotsBaromVisibWave heightAir tempDewpointWater temp
2017-Nov-20 00:30N 34°41' E 135°17'0 0.1
2017-Nov-20 00:00N 34°41' E 135°17'0 0.8
2017-Nov-19 23:30N 34°41' E 135°16'1 2.9
2017-Nov-19 23:00N 34°41' E 135°15'0 0.7
2017-Nov-19 22:30N 34°42' E 135°14'0 0.0
2017-Nov-19 22:00N 34°42' E 135°14'0 0.0
2017-Nov-19 21:30N 34°42' E 135°14'0 0.0
2017-Nov-19 21:00N 34°42' E 135°14'0 0.0
2017-Nov-19 20:30N 34°42' E 135°14'0 0.0
2017-Nov-19 20:00N 34°42' E 135°14'0 0.0
2017-Nov-19 19:30N 34°42' E 135°14'0 0.0
2017-Nov-19 19:00N 34°42' E 135°14'0 0.0
2017-Nov-19 18:30N 34°42' E 135°14'0 0.0
2017-Nov-19 18:00N 34°42' E 135°14'0 0.0
2017-Nov-19 17:30N 34°42' E 135°14'0 0.0
2017-Nov-19 17:00N 34°42' E 135°14'0 0.0
2017-Nov-19 16:30N 34°42' E 135°14'0 0.0
2017-Nov-19 16:00N 34°42' E 135°14'0 0.0
2017-Nov-19 15:30N 34°42' E 135°14'0 0.0
2017-Nov-19 15:00N 34°42' E 135°14'0 0.0
2017-Nov-19 14:30N 34°42' E 135°14'0 0.0
2017-Nov-19 14:00N 34°42' E 135°14'0 0.0
2017-Nov-19 13:30N 34°42' E 135°14'0 0.0
2017-Nov-19 13:00N 34°42' E 135°14'0 0.0
2017-Nov-19 12:30N 34°42' E 135°14'0 0.0
2017-Nov-19 12:00N 34°42' E 135°14'0 0.0
2017-Nov-19 11:30N 34°42' E 135°14'0 0.0
2017-Nov-19 11:00N 34°42' E 135°14'0 0.0
2017-Nov-19 10:30N 34°42' E 135°14'0 0.0
2017-Nov-19 10:00N 34°42' E 135°14'0 0.0
2017-Nov-19 09:30N 34°42' E 135°14'0 0.0
2017-Nov-19 09:00N 34°42' E 135°14'0 0.0
2017-Nov-19 08:30N 34°42' E 135°14'0 0.0
2017-Nov-19 08:00N 34°42' E 135°14'0 0.0
2017-Nov-19 07:30N 34°42' E 135°14'0 0.0
2017-Nov-19 07:00N 34°42' E 135°14'0 0.0
2017-Nov-19 06:30N 34°42' E 135°14'0 0.0
2017-Nov-19 06:00N 34°42' E 135°14'0 0.0
2017-Nov-19 05:30N 34°42' E 135°14'0 0.0
2017-Nov-19 05:00N 34°42' E 135°14'0 0.0
2017-Nov-19 04:30N 34°42' E 135°14'0 0.0
2017-Nov-19 04:00N 34°42' E 135°14'0 0.0
2017-Nov-19 03:30N 34°42' E 135°14'0 0.0
2017-Nov-19 03:00N 34°42' E 135°14'0 0.0
2017-Nov-19 02:30N 34°42' E 135°14'0 0.0
2017-Nov-19 02:00N 34°42' E 135°14'0 0.0
2017-Nov-19 01:30N 34°42' E 135°14'0 0.0
2017-Nov-19 01:00N 34°42' E 135°14'0 0.0
2017-Nov-19 00:30N 34°42' E 135°14'0 0.0
2017-Nov-19 00:00N 34°42' E 135°14'0 0.0
2017-Nov-18 23:30N 34°42' E 135°14'0 0.0
2017-Nov-18 23:00N 34°42' E 135°14'2 4.1
2017-Nov-18 22:30N 34°40' E 135°15'3 6.4
2017-Nov-18 22:00N 34°37' E 135°16'0 0.1
2017-Nov-18 21:29N 34°37' E 135°16'0 0.2
2017-Nov-18 21:01N 34°37' E 135°16'4 8.0
2017-Nov-18 20:30N 34°35' E 135°12'510.2
2017-Nov-18 20:00N 34°35' E 135°06'510.7
2017-Nov-18 19:30N 34°37' E 134°60'  
2017-Nov-16 07:09N 34°35' E 134°51'211.1
2017-Nov-16 06:59N 34°35' E 134°53'710.3
2017-Nov-16 06:19N 34°37' E 135°01'3 8.6
2017-Nov-16 06:00N 34°36' E 135°04'510.3
2017-Nov-16 05:30N 34°36' E 135°10'5 9.7
2017-Nov-16 05:00N 34°38' E 135°16'1 2.9
2017-Nov-16 04:30N 34°39' E 135°15'1 1.1
2017-Nov-16 04:00N 34°39' E 135°15'2 4.6
2017-Nov-16 03:30N 34°37' E 135°17'0 0.0
2017-Nov-16 03:00N 34°37' E 135°17'3 5.2
2017-Nov-16 02:30N 34°40' E 135°18'1 2.9
2017-Nov-16 02:00N 34°41' E 135°17'0 0.0
2017-Nov-16 01:30N 34°41' E 135°17'1 1.7
2017-Nov-16 01:00N 34°41' E 135°18'3 5.3
2017-Nov-16 00:30N 34°38' E 135°19'0 0.1
2017-Nov-16 00:00N 34°38' E 135°19'0 0.0
2017-Nov-15 23:30N 34°38' E 135°19'0 0.0
2017-Nov-15 22:57N 34°38' E 135°19'0 0.0
2017-Nov-15 22:29N 34°38' E 135°19'0 0.0
2017-Nov-15 22:00N 34°38' E 135°19'0 0.0
2017-Nov-15 21:30N 34°38' E 135°19'0 0.0
2017-Nov-15 21:00N 34°38' E 135°19'0 0.0
2017-Nov-15 20:30N 34°38' E 135°19'0 0.1
2017-Nov-15 20:00N 34°38' E 135°19'0 0.1
2017-Nov-15 19:30N 34°38' E 135°19'0 0.0
2017-Nov-15 19:00N 34°38' E 135°19'0 0.0
2017-Nov-15 18:30N 34°38' E 135°19'0 0.0
2017-Nov-15 18:00N 34°38' E 135°19'0 0.0
2017-Nov-15 17:30N 34°38' E 135°19'2 3.2
2017-Nov-15 17:00N 34°37' E 135°18'510.9
2017-Nov-15 16:30N 34°35' E 135°12'612.5
2017-Nov-15 16:00N 34°35' E 135°04'713.5
2017-Nov-15 15:29N 34°36' E 134°56'  
Track history (hours):
 
Tides and Currents Weather Stations Pressure Air Temp Water Temp Dewpoint Dewpoint Depression Visibility Wind Speed Wind Dir Waves Ship Positions

Suma

Last reported at 2017-Nov-20 00:30 UTC. Time now 2017-Nov-22 12:47 UTC.
Position N 34°41' E 135°17'.

Length 80 m; draft 4.5 m.

Type: Cargo ship. MMSI: 431600127.

Date/timePositionNaut miles runAvg speedWind from/ knotsBaromVisibWave heightAir tempDewpointWater temp
2017-Nov-20 00:30N 34°41' E 135°17'0 0.1
2017-Nov-20 00:00N 34°41' E 135°17'0 0.8
2017-Nov-19 23:30N 34°41' E 135°16'1 2.9
2017-Nov-19 23:00N 34°41' E 135°15'0 0.7
2017-Nov-19 22:30N 34°42' E 135°14'0 0.0
2017-Nov-19 22:00N 34°42' E 135°14'0 0.0
2017-Nov-19 21:30N 34°42' E 135°14'0 0.0
2017-Nov-19 21:00N 34°42' E 135°14'0 0.0
2017-Nov-19 20:30N 34°42' E 135°14'0 0.0
2017-Nov-19 20:00N 34°42' E 135°14'0 0.0
2017-Nov-19 19:30N 34°42' E 135°14'0 0.0
2017-Nov-19 19:00N 34°42' E 135°14'0 0.0
2017-Nov-19 18:30N 34°42' E 135°14'0 0.0
2017-Nov-19 18:00N 34°42' E 135°14'0 0.0
2017-Nov-19 17:30N 34°42' E 135°14'0 0.0
2017-Nov-19 17:00N 34°42' E 135°14'0 0.0
2017-Nov-19 16:30N 34°42' E 135°14'0 0.0
2017-Nov-19 16:00N 34°42' E 135°14'0 0.0
2017-Nov-19 15:30N 34°42' E 135°14'0 0.0
2017-Nov-19 15:00N 34°42' E 135°14'0 0.0
2017-Nov-19 14:30N 34°42' E 135°14'0 0.0
2017-Nov-19 14:00N 34°42' E 135°14'0 0.0
2017-Nov-19 13:30N 34°42' E 135°14'0 0.0
2017-Nov-19 13:00N 34°42' E 135°14'0 0.0
2017-Nov-19 12:30N 34°42' E 135°14'0 0.0
2017-Nov-19 12:00N 34°42' E 135°14'0 0.0
2017-Nov-19 11:30N 34°42' E 135°14'0 0.0
2017-Nov-19 11:00N 34°42' E 135°14'0 0.0
2017-Nov-19 10:30N 34°42' E 135°14'0 0.0
2017-Nov-19 10:00N 34°42' E 135°14'0 0.0
2017-Nov-19 09:30N 34°42' E 135°14'0 0.0
2017-Nov-19 09:00N 34°42' E 135°14'0 0.0
2017-Nov-19 08:30N 34°42' E 135°14'0 0.0
2017-Nov-19 08:00N 34°42' E 135°14'0 0.0
2017-Nov-19 07:30N 34°42' E 135°14'0 0.0
2017-Nov-19 07:00N 34°42' E 135°14'0 0.0
2017-Nov-19 06:30N 34°42' E 135°14'0 0.0
2017-Nov-19 06:00N 34°42' E 135°14'0 0.0
2017-Nov-19 05:30N 34°42' E 135°14'0 0.0
2017-Nov-19 05:00N 34°42' E 135°14'0 0.0
2017-Nov-19 04:30N 34°42' E 135°14'0 0.0
2017-Nov-19 04:00N 34°42' E 135°14'0 0.0
2017-Nov-19 03:30N 34°42' E 135°14'0 0.0
2017-Nov-19 03:00N 34°42' E 135°14'0 0.0
2017-Nov-19 02:30N 34°42' E 135°14'0 0.0
2017-Nov-19 02:00N 34°42' E 135°14'0 0.0
2017-Nov-19 01:30N 34°42' E 135°14'0 0.0
2017-Nov-19 01:00N 34°42' E 135°14'0 0.0
2017-Nov-19 00:30N 34°42' E 135°14'0 0.0
2017-Nov-19 00:00N 34°42' E 135°14'0 0.0
2017-Nov-18 23:30N 34°42' E 135°14'0 0.0
2017-Nov-18 23:00N 34°42' E 135°14'2 4.1
2017-Nov-18 22:30N 34°40' E 135°15'3 6.4
2017-Nov-18 22:00N 34°37' E 135°16'0 0.1
2017-Nov-18 21:29N 34°37' E 135°16'0 0.2
2017-Nov-18 21:01N 34°37' E 135°16'4 8.0
2017-Nov-18 20:30N 34°35' E 135°12'510.2
2017-Nov-18 20:00N 34°35' E 135°06'510.7
2017-Nov-18 19:30N 34°37' E 134°60'  
2017-Nov-16 07:09N 34°35' E 134°51'211.1
2017-Nov-16 06:59N 34°35' E 134°53'710.3
2017-Nov-16 06:19N 34°37' E 135°01'3 8.6
2017-Nov-16 06:00N 34°36' E 135°04'510.3
2017-Nov-16 05:30N 34°36' E 135°10'5 9.7
2017-Nov-16 05:00N 34°38' E 135°16'1 2.9
2017-Nov-16 04:30N 34°39' E 135°15'1 1.1
2017-Nov-16 04:00N 34°39' E 135°15'2 4.6
2017-Nov-16 03:30N 34°37' E 135°17'0 0.0
2017-Nov-16 03:00N 34°37' E 135°17'3 5.2
2017-Nov-16 02:30N 34°40' E 135°18'1 2.9
2017-Nov-16 02:00N 34°41' E 135°17'0 0.0
2017-Nov-16 01:30N 34°41' E 135°17'1 1.7
2017-Nov-16 01:00N 34°41' E 135°18'3 5.3
2017-Nov-16 00:30N 34°38' E 135°19'0 0.1
2017-Nov-16 00:00N 34°38' E 135°19'0 0.0
2017-Nov-15 23:30N 34°38' E 135°19'0 0.0
2017-Nov-15 22:57N 34°38' E 135°19'0 0.0
2017-Nov-15 22:29N 34°38' E 135°19'0 0.0
2017-Nov-15 22:00N 34°38' E 135°19'0 0.0
2017-Nov-15 21:30N 34°38' E 135°19'0 0.0
2017-Nov-15 21:00N 34°38' E 135°19'0 0.0
2017-Nov-15 20:30N 34°38' E 135°19'0 0.1
2017-Nov-15 20:00N 34°38' E 135°19'0 0.1
2017-Nov-15 19:30N 34°38' E 135°19'0 0.0
2017-Nov-15 19:00N 34°38' E 135°19'0 0.0
2017-Nov-15 18:30N 34°38' E 135°19'0 0.0
2017-Nov-15 18:00N 34°38' E 135°19'0 0.0
2017-Nov-15 17:30N 34°38' E 135°19'2 3.2
2017-Nov-15 17:00N 34°37' E 135°18'510.9
2017-Nov-15 16:30N 34°35' E 135°12'612.5
2017-Nov-15 16:00N 34°35' E 135°04'713.5
2017-Nov-15 15:29N 34°36' E 134°56'  

Dump ship's entire track history